• Join FlightAware (Why Join?)
  • Login
  • US Flag 
02:52PM EDT


 

Airport Tracker/Info


-or-


 

Live Flight TrackerFlight Track Log ✈ ASA3482 ✈ 12-May-2013 ✈ KSEA - KSBA

Flight Track Log - Related Links

Times and Time Zones

All times are in EDT time to prevent confusion due to time zone crossing. See the ASA3482 flight status page for this flight to view local times or setup timezone preferences in your user account.

Time Position Orientation Groundspeed Altitude Reporting Facility
EDT Latitude Longitude Course Direction KTS MPH feet Rate Location/Type
02:15PM 47.4314 -122.3125 182° South 157 181 1,300  Level Seattle Center
02:15PM 47.4106 -122.3133 182° South 162 186 2,000 2,040 Climbing Seattle Center
02:16PM 47.3419 -122.3139 180° South 232 267 4,400 2,640 Climbing Seattle Center
02:17PM 47.2719 -122.3108 178° South 251 289 7,400 3,060 Climbing Seattle Center
02:18PM 47.2036 -122.2828 164° South 267 307 10,700 2,160 Climbing Seattle Center
02:19PM 47.1283 -122.2239 152° Southeast 312 359 11,800 2,100 Climbing Seattle Center
02:20PM 47.0456 -122.1814 161° South 313 360 15,000 2,520 Climbing Seattle Center
02:21PM 46.9586 -122.1406 162° South 309 356 17,000 1,320 Climbing Seattle Center
02:22PM 46.8736 -122.1194 170° South 310 357 17,800 1,020 Climbing Seattle Center
02:24PM 46.8006 -122.1419 192° South 316 364 19,100 1,500 Climbing Seattle Center
02:25PM 46.6917 -122.1692 190° South 329 379 20,900 1,620 Climbing Seattle Center
02:26PM 46.5981 -122.1947 191° South 341 392 22,500 1,500 Climbing Seattle Center
02:27PM 46.5019 -122.2186 190° South 350 403 24,000 1,380 Climbing Seattle Center
02:28PM 46.4039 -122.2458 191° South 360 414 25,400 1,260 Climbing Seattle Center
02:29PM 46.3039 -122.2742 191° South 370 426 26,600 1,080 Climbing Seattle Center
02:30PM 46.1878 -122.2494 172° South 396 456 27,700 960 Climbing Seattle Center
02:31PM 46.0767 -122.2256 172° South 403 464 28,600 1,020 Climbing Seattle Center
02:32PM 45.9647 -122.2000 171° South 406 467 29,800 1,320 Climbing Seattle Center
02:33PM 45.8542 -122.1764 172° South 403 464 31,300 1,200 Climbing Seattle Center
02:34PM 45.7453 -122.1522 171° South 399 459 32,300 1,020 Climbing Seattle Center
02:35PM 45.6342 -122.1272 171° South 404 465 33,400 1,020 Climbing Seattle Center
02:36PM 45.5242 -122.1036 171° South 401 461 34,500 840 Climbing Seattle Center
02:37PM 45.4144 -122.0803 172° South 399 459 35,200 900 Climbing Seattle Center
02:38PM 45.3031 -122.0558 171° South 404 465 36,400 900 Climbing Seattle Center
02:39PM 45.1953 -122.0317 171° South 396 456 37,100 540 Climbing Seattle Center
02:40PM 45.0839 -122.0078 171° South 405 466 37,600 540 Climbing Seattle Center
02:41PM 44.9528 -121.9800 171° South 396 456 38,300 540 Climbing Seattle Center
02:42PM 44.8561 -121.9594 171° South 395 455 38,800 300 Climbing Seattle Center
02:43PM 44.7478 -121.9361 171° South 392 451 39,000 60 Climbing Seattle Center
02:44PM 44.6364 -121.9128 172° South 400 460 39,000  Level Seattle Center
02:45PM 44.5200 -121.8900 172° South 408 470 39,000  Level Seattle Center
02:46PM 44.4019 -121.8647 171° South 423 487 39,000  Level Seattle Center
02:47PM 44.2861 -121.8406 172° South 423 487 39,000  Level Seattle Center
02:48PM 44.1481 -121.8119 172° South 421 484 39,000  Level Seattle Center
02:49PM 44.0319 -121.7875 171° South 422 486 39,000  Level Seattle Center
02:50PM 43.9178 -121.7642 172° South 419 482 39,000  Level Seattle Center
02:51PM 43.8083 -121.7428 172° South 423 487 39,000  Level Seattle Center
02:52PM 43.6919 -121.7192 172° South 422 486 39,000  Level Seattle Center
02:53PM 43.5764 -121.6956 172° South 420 483 39,000  Level Seattle Center
02:54PM 43.4597 -121.6722 172° South 422 486 39,000  Level Seattle Center
02:55PM 43.3439 -121.6483 171° South 420 483 39,000  Level Seattle Center
02:56PM 43.2272 -121.6250 172° South 422 486 39,000  Level Seattle Center
02:57PM 43.0858 -121.5953 171° South 426 490 39,000  Level Seattle Center
02:58PM 42.9669 -121.5739 173° South 429 494 39,000  Level Seattle Center
02:59PM 42.8486 -121.5508 172° South 430 495 39,000  Level Seattle Center
03:00PM 42.7292 -121.5267 172° South 432 497 39,000  Level Seattle Center
03:01PM 42.6094 -121.5036 172° South 433 498 39,000  Level Seattle Center
03:02PM 42.4789 -121.4792 172° South 436 502 39,000  Level Seattle Center
03:03PM 42.3678 -121.4564 171° South 434 499 39,000  Level Seattle Center
03:04PM 42.2472 -121.4319 171° South 434 499 39,000  Level Seattle Center
03:05PM 42.1269 -121.4083 172° South 434 499 39,000  Level Seattle Center
03:06PM 42.0061 -121.3853 172° South 436 502 39,000  Level Seattle Center
03:07PM 41.8842 -121.3622 172° South 438 504 39,000  Level Seattle Center
03:08PM 41.7639 -121.3386 172° South 435 501 39,000  Level Seattle Center
03:09PM 41.6425 -121.3156 172° South 438 504 39,000  Level Seattle Center
03:10PM 41.5208 -121.2919 172° South 439 505 39,000  Level Seattle Center
03:11PM 41.4000 -121.2694 172° South 438 504 39,000  Level Seattle Center
03:12PM 41.2803 -121.2472 172° South 435 501 39,000  Level Seattle Center
03:13PM 41.1600 -121.2236 172° South 435 501 39,000  Level Seattle Center
03:14PM 41.0394 -121.2014 172° South 436 502 39,000  Level Seattle Center
03:15PM 40.8939 -121.1744 172° South 439 505 39,000  Level Seattle Center
03:16PM 40.7731 -121.1514 172° South 440 506 39,000  Level Seattle Center
03:17PM 40.6481 -121.1292 172° South 442 509 39,000  Level Seattle Center
03:18PM 40.5483 -121.1081 171° South 442 509 39,000  Level Oakland Center
03:19PM 40.4258 -121.0878 173° South 443 510 39,000  Level Oakland Center
03:20PM 40.3028 -121.0631 171° South 447 514 39,000  Level Oakland Center
03:21PM 40.1789 -121.0425 173° South 448 516 39,000  Level Oakland Center
03:22PM 40.0303 -121.0142 172° South 449 517 39,000  Level Oakland Center
03:23PM 39.9050 -120.9919 172° South 450 518 39,000  Level Oakland Center
03:24PM 39.7806 -120.9694 172° South 450 518 39,000  Level Oakland Center
03:26PM 39.6569 -120.9475 172° South 449 517 39,000  Level Oakland Center
03:27PM 39.5319 -120.9258 172° South 451 519 39,000  Level Oakland Center
03:28PM 39.4061 -120.9025 172° South 455 524 39,000  Level Oakland Center
03:29PM 39.2817 -120.8808 172° South 451 519 39,000  Level Oakland Center
03:30PM 39.1561 -120.8589 172° South 454 522 39,000  Level Oakland Center
03:31PM 39.0306 -120.8364 172° South 454 522 39,000  Level Oakland Center
03:32PM 38.9050 -120.8142 172° South 453 521 39,000  Level Oakland Center
03:33PM 38.7778 -120.7917 172° South 457 526 39,000  Level Oakland Center
03:34PM 38.6511 -120.7697 172° South 455 524 39,000  Level Oakland Center
03:35PM 38.5253 -120.7475 172° South 453 521 39,000  Level Oakland Center
03:36PM 38.3731 -120.7214 172° South 454 522 39,000  Level Oakland Center
03:37PM 38.2472 -120.6994 172° South 453 521 39,000  Level Oakland Center
03:38PM 38.1211 -120.6797 173° South 453 521 39,000  Level Oakland Center
03:39PM 37.9944 -120.6575 172° South 455 524 39,000  Level Oakland Center
03:40PM 37.8689 -120.6356 172° South 454 522 39,000  Level Oakland Center
03:41PM 37.7422 -120.6150 173° South 455 524 39,000  Level Oakland Center
03:42PM 37.6161 -120.5917 172° South 456 525 39,000  Level Oakland Center
03:43PM 37.4889 -120.5717 173° South 457 526 39,000  Level Oakland Center
03:44PM 37.3617 -120.5497 172° South 460 529 39,000  Level Oakland Center
03:45PM 37.2314 -120.5314 174° South 463 533 39,000 -600 Level Oakland Center
03:46PM 37.0767 -120.5042 172° South 462 532 37,800 -1,320 Descending Oakland Center
03:47PM 36.9486 -120.4828 172° South 460 529 36,300 -1,380 Descending Oakland Center
03:48PM 36.8200 -120.4597 172° South 464 534 35,000 -660 Descending Oakland Center
03:49PM 36.6914 -120.4375 172° South 463 533 35,000  Level Oakland Center
03:50PM 36.5631 -120.4156 172° South 458 527 35,000 -120 Level Oakland Center
03:51PM 36.4325 -120.3933 172° South 460 529 34,800 -600 Descending Oakland Center
03:52PM 36.3006 -120.3711 172° South 471 542 33,800 -1,020 Descending Oakland Center
03:53PM 36.1717 -120.3514 173° South 468 539 32,800 -1,020 Descending Oakland Center
03:54PM 36.0444 -120.3311 173° South 463 533 31,800 -900 Descending Oakland Center
03:55PM 35.9167 -120.3142 174° South 458 527 31,000 -600 Descending Oakland Center
03:56PM 35.7617 -120.2881 172° South 467 537 30,600 -960 Descending Oakland Center
03:57PM 35.6322 -120.2667 172° South 468 539 29,100 -1,500 Descending Oakland Center
03:58PM 35.5014 -120.2450 172° South 468 539 27,600 -1,500 Descending Oakland Center
03:59PM 35.3764 -120.2256 173° South 475 547 26,100 -1,500 Descending Oakland Center
04:00PM 35.2486 -120.2044 172° South 460 529 24,600 -1,680 Descending Oakland Center
04:01PM 35.1161 -120.1836 173° South 439 505 22,800 -2,100 Descending Oakland Center
04:02PM 34.9967 -120.1656 173° South 433 498 20,400 -2,400 Descending Oakland Center
04:03PM 34.8800 -120.1467 172° South 426 490 17,900 -2,520 Descending Oakland Center
04:04PM 34.7544 -120.1267 173° South 397 457 15,200 -2,400 Descending Los Angeles Center
04:06PM 34.6539 -120.1106 172° South 381 438 12,700 -2,100 Descending Los Angeles Center
04:06PM 34.5719 -120.1014 175° South 332 382 11,400 -1,560 Descending Los Angeles Center
04:07PM 34.5539 -120.1031 184° South 333 383 11,100 -1,440 Descending Los Angeles Center
04:07PM 34.4961 -120.1103 186° South 304 350 10,100 -1,560 Descending Los Angeles Center
04:08PM 34.4711 -120.1128 185° South 301 346 9,500 -1,740 Descending Los Angeles Center
04:08PM 34.4111 -120.0958 167° South 281 323 8,200 -1,560 Descending Los Angeles Center
04:09PM 34.3850 -120.0794 153° Southeast 278 320 7,600 -1,500 Descending Los Angeles Center
04:09PM 34.3622 -120.0411 126° Southeast 266 306 6,900 -1,380 Descending Los Angeles Center
04:10PM 34.3464 -119.9986 114° Southeast 269 310 6,200 -900 Descending Los Angeles Center
04:10PM 34.3350 -119.9664 113° Southeast 256 295 6,000 -540 Descending Los Angeles Center
04:11PM 34.3303 -119.9222 97° East 247 284 5,700 -1,140 Descending Los Angeles Center
04:12PM 34.3411 -119.8186 83° East 233 268 3,900 -1,560 Descending Los Angeles Center
04:13PM 34.3506 -119.7453 81° East 213 245 2,300 -1,320 Descending Los Angeles Center
04:14PM 34.3858 -119.7478 357° North 205 236 1,500 -540 Descending Los Angeles Center
04:15PM 34.4128 -119.7708 325° Northwest 175 201 1,300 -600 Descending Los Angeles Center
04:16PM 34.4275 -119.8194 290° West 136 157 300 -540 Descending Los Angeles Center
04:17PM 34.4389 -119.8544 292° West 141 162 300  Level Los Angeles Center
04:19PM 34.4262 -119.8415 56° Northeast  Level Estimated